sensor_id;sensor_type;location;lat;lon;timestamp;P1;durP1;ratioP1;P2;durP2;ratioP2
72127;SDS011;60000;51.030;7.024;2023-12-29T00:00:32;3.50;;;1.00;;
72127;SDS011;60000;51.030;7.024;2023-12-29T00:02:58;4.20;;;1.00;;
72127;SDS011;60000;51.030;7.024;2023-12-29T00:05:23;5.13;;;1.20;;
72127;SDS011;60000;51.030;7.024;2023-12-29T00:07:48;4.57;;;1.10;;
72127;SDS011;60000;51.030;7.024;2023-12-29T00:10:14;5.67;;;1.73;;
72127;SDS011;60000;51.030;7.024;2023-12-29T00:12:39;4.33;;;0.97;;
72127;SDS011;60000;51.030;7.024;2023-12-29T00:15:05;4.20;;;1.07;;
72127;SDS011;60000;51.030;7.024;2023-12-29T00:17:30;4.72;;;1.08;;
72127;SDS011;60000;51.030;7.024;2023-12-29T00:19:57;5.25;;;1.00;;
72127;SDS011;60000;51.030;7.024;2023-12-29T00:22:23;4.93;;;1.40;;
72127;SDS011;60000;51.030;7.024;2023-12-29T00:24:50;5.50;;;0.95;;
72127;SDS011;60000;51.030;7.024;2023-12-29T00:27:15;7.37;;;1.13;;
72127;SDS011;60000;51.030;7.024;2023-12-29T00:29:41;5.63;;;1.10;;
72127;SDS011;60000;51.030;7.024;2023-12-29T00:32:07;3.80;;;1.00;;
72127;SDS011;60000;51.030;7.024;2023-12-29T00:34:32;17.13;;;2.20;;
72127;SDS011;60000;51.030;7.024;2023-12-29T00:36:57;4.63;;;1.20;;
72127;SDS011;60000;51.030;7.024;2023-12-29T00:39:22;4.13;;;0.97;;
72127;SDS011;60000;51.030;7.024;2023-12-29T00:41:56;4.63;;;1.40;;
72127;SDS011;60000;51.030;7.024;2023-12-29T00:44:22;7.38;;;1.60;;
72127;SDS011;60000;51.030;7.024;2023-12-29T00:46:48;3.83;;;0.95;;
72127;SDS011;60000;51.030;7.024;2023-12-29T00:49:14;3.33;;;1.00;;
72127;SDS011;60000;51.030;7.024;2023-12-29T00:51:39;4.03;;;1.20;;
72127;SDS011;60000;51.030;7.024;2023-12-29T00:54:06;3.83;;;0.90;;
72127;SDS011;60000;51.030;7.024;2023-12-29T00:56:31;4.90;;;1.07;;
72127;SDS011;60000;51.030;7.024;2023-12-29T00:58:57;4.90;;;1.00;;
72127;SDS011;60000;51.030;7.024;2023-12-29T01:01:22;6.43;;;1.17;;
72127;SDS011;60000;51.030;7.024;2023-12-29T01:03:47;5.80;;;1.20;;
72127;SDS011;60000;51.030;7.024;2023-12-29T01:06:12;4.77;;;1.00;;
72127;SDS011;60000;51.030;7.024;2023-12-29T01:08:38;4.53;;;1.40;;
72127;SDS011;60000;51.030;7.024;2023-12-29T01:11:03;4.80;;;1.30;;
72127;SDS011;60000;51.030;7.024;2023-12-29T01:13:28;3.63;;;1.17;;
72127;SDS011;60000;51.030;7.024;2023-12-29T01:15:54;5.30;;;0.93;;
72127;SDS011;60000;51.030;7.024;2023-12-29T01:18:19;6.00;;;1.20;;
72127;SDS011;60000;51.030;7.024;2023-12-29T01:20:44;5.93;;;1.43;;
72127;SDS011;60000;51.030;7.024;2023-12-29T01:23:10;4.72;;;1.10;;
72127;SDS011;60000;51.030;7.024;2023-12-29T01:25:35;5.32;;;1.70;;
72127;SDS011;60000;51.030;7.024;2023-12-29T01:28:00;4.97;;;0.90;;
72127;SDS011;60000;51.030;7.024;2023-12-29T01:30:25;5.87;;;1.10;;
72127;SDS011;60000;51.030;7.024;2023-12-29T01:32:51;4.00;;;1.00;;
72127;SDS011;60000;51.030;7.024;2023-12-29T01:35:16;5.37;;;1.20;;
72127;SDS011;60000;51.030;7.024;2023-12-29T01:37:42;4.17;;;0.90;;
72127;SDS011;60000;51.030;7.024;2023-12-29T01:40:07;8.50;;;1.40;;
72127;SDS011;60000;51.030;7.024;2023-12-29T01:42:33;7.10;;;1.20;;
72127;SDS011;60000;51.030;7.024;2023-12-29T01:44:58;9.77;;;1.60;;
72127;SDS011;60000;51.030;7.024;2023-12-29T01:47:24;6.72;;;1.08;;
72127;SDS011;60000;51.030;7.024;2023-12-29T01:49:49;4.88;;;1.35;;
72127;SDS011;60000;51.030;7.024;2023-12-29T01:52:16;6.27;;;1.27;;
72127;SDS011;60000;51.030;7.024;2023-12-29T01:54:42;4.82;;;1.35;;
72127;SDS011;60000;51.030;7.024;2023-12-29T01:57:09;4.75;;;1.00;;
72127;SDS011;60000;51.030;7.024;2023-12-29T01:59:35;4.90;;;1.30;;
72127;SDS011;60000;51.030;7.024;2023-12-29T02:02:02;5.43;;;1.00;;
72127;SDS011;60000;51.030;7.024;2023-12-29T02:04:28;4.72;;;1.30;;
72127;SDS011;60000;51.030;7.024;2023-12-29T02:06:53;4.40;;;1.40;;
72127;SDS011;60000;51.030;7.024;2023-12-29T02:09:20;5.53;;;1.30;;
72127;SDS011;60000;51.030;7.024;2023-12-29T02:11:46;4.87;;;1.10;;
72127;SDS011;60000;51.030;7.024;2023-12-29T02:14:12;5.60;;;1.20;;
72127;SDS011;60000;51.030;7.024;2023-12-29T02:22:04;5.60;;;1.30;;
72127;SDS011;60000;51.030;7.024;2023-12-29T02:24:30;3.47;;;1.20;;
72127;SDS011;60000;51.030;7.024;2023-12-29T02:27:02;5.93;;;1.08;;
72127;SDS011;60000;51.030;7.024;2023-12-29T02:29:36;6.10;;;1.30;;
72127;SDS011;60000;51.030;7.024;2023-12-29T02:32:05;5.70;;;1.15;;
72127;SDS011;60000;51.030;7.024;2023-12-29T02:34:35;8.00;;;1.25;;
72127;SDS011;60000;51.030;7.024;2023-12-29T02:37:03;8.45;;;1.40;;
72127;SDS011;60000;51.030;7.024;2023-12-29T02:39:29;6.00;;;1.10;;
72127;SDS011;60000;51.030;7.024;2023-12-29T02:41:54;6.93;;;1.45;;
72127;SDS011;60000;51.030;7.024;2023-12-29T02:44:20;5.80;;;1.20;;
72127;SDS011;60000;51.030;7.024;2023-12-29T02:46:45;6.97;;;1.60;;
72127;SDS011;60000;51.030;7.024;2023-12-29T02:49:10;7.60;;;1.67;;
72127;SDS011;60000;51.030;7.024;2023-12-29T02:51:38;6.15;;;1.20;;
72127;SDS011;60000;51.030;7.024;2023-12-29T02:54:03;8.40;;;1.33;;
72127;SDS011;60000;51.030;7.024;2023-12-29T02:56:30;4.90;;;1.27;;
72127;SDS011;60000;51.030;7.024;2023-12-29T02:58:56;4.47;;;1.30;;
72127;SDS011;60000;51.030;7.024;2023-12-29T03:01:21;10.27;;;1.30;;
72127;SDS011;60000;51.030;7.024;2023-12-29T03:03:46;8.50;;;1.20;;
72127;SDS011;60000;51.030;7.024;2023-12-29T03:06:12;8.15;;;1.67;;
72127;SDS011;60000;51.030;7.024;2023-12-29T03:08:37;6.93;;;1.43;;
72127;SDS011;60000;51.030;7.024;2023-12-29T03:11:02;8.73;;;1.60;;
72127;SDS011;60000;51.030;7.024;2023-12-29T03:13:28;4.40;;;1.00;;
72127;SDS011;60000;51.030;7.024;2023-12-29T03:15:53;8.17;;;1.30;;
72127;SDS011;60000;51.030;7.024;2023-12-29T03:18:18;8.57;;;1.30;;
72127;SDS011;60000;51.030;7.024;2023-12-29T03:20:44;6.97;;;1.20;;
72127;SDS011;60000;51.030;7.024;2023-12-29T03:23:09;6.18;;;1.15;;
72127;SDS011;60000;51.030;7.024;2023-12-29T03:25:34;5.67;;;0.90;;
72127;SDS011;60000;51.030;7.024;2023-12-29T03:27:59;5.80;;;1.07;;
72127;SDS011;60000;51.030;7.024;2023-12-29T03:30:25;6.87;;;1.30;;
72127;SDS011;60000;51.030;7.024;2023-12-29T03:32:50;5.03;;;1.10;;
72127;SDS011;60000;51.030;7.024;2023-12-29T03:35:16;10.17;;;1.70;;
72127;SDS011;60000;51.030;7.024;2023-12-29T03:37:41;4.90;;;1.33;;
72127;SDS011;60000;51.030;7.024;2023-12-29T03:40:07;6.60;;;1.10;;
72127;SDS011;60000;51.030;7.024;2023-12-29T03:42:33;6.22;;;1.45;;
72127;SDS011;60000;51.030;7.024;2023-12-29T03:44:58;6.40;;;1.13;;
72127;SDS011;60000;51.030;7.024;2023-12-29T03:47:24;7.07;;;1.33;;
72127;SDS011;60000;51.030;7.024;2023-12-29T03:49:49;5.67;;;1.23;;
72127;SDS011;60000;51.030;7.024;2023-12-29T03:52:14;6.30;;;1.20;;
72127;SDS011;60000;51.030;7.024;2023-12-29T03:54:40;5.07;;;1.17;;
72127;SDS011;60000;51.030;7.024;2023-12-29T03:57:05;8.43;;;1.10;;
72127;SDS011;60000;51.030;7.024;2023-12-29T03:59:30;7.17;;;1.70;;
72127;SDS011;60000;51.030;7.024;2023-12-29T04:01:55;5.27;;;0.93;;
72127;SDS011;60000;51.030;7.024;2023-12-29T04:04:21;7.27;;;1.40;;
72127;SDS011;60000;51.030;7.024;2023-12-29T04:06:46;8.63;;;1.67;;
72127;SDS011;60000;51.030;7.024;2023-12-29T04:09:11;7.53;;;1.57;;
72127;SDS011;60000;51.030;7.024;2023-12-29T04:11:37;4.97;;;1.00;;
72127;SDS011;60000;51.030;7.024;2023-12-29T04:14:02;5.07;;;1.23;;
72127;SDS011;60000;51.030;7.024;2023-12-29T04:16:27;9.15;;;1.10;;
72127;SDS011;60000;51.030;7.024;2023-12-29T04:18:53;7.93;;;1.33;;
72127;SDS011;60000;51.030;7.024;2023-12-29T04:21:18;4.47;;;1.00;;
72127;SDS011;60000;51.030;7.024;2023-12-29T04:23:43;7.20;;;1.43;;
72127;SDS011;60000;51.030;7.024;2023-12-29T04:26:09;6.57;;;0.93;;
72127;SDS011;60000;51.030;7.024;2023-12-29T04:28:34;6.82;;;1.02;;
72127;SDS011;60000;51.030;7.024;2023-12-29T04:31:00;3.78;;;0.85;;
72127;SDS011;60000;51.030;7.024;2023-12-29T04:33:25;8.60;;;1.30;;
72127;SDS011;60000;51.030;7.024;2023-12-29T04:35:51;7.17;;;0.97;;
72127;SDS011;60000;51.030;7.024;2023-12-29T04:38:16;11.57;;;1.30;;
72127;SDS011;60000;51.030;7.024;2023-12-29T04:40:44;9.57;;;1.52;;
72127;SDS011;60000;51.030;7.024;2023-12-29T04:43:09;4.57;;;1.00;;
72127;SDS011;60000;51.030;7.024;2023-12-29T04:45:34;6.77;;;1.67;;
72127;SDS011;60000;51.030;7.024;2023-12-29T04:48:00;6.97;;;1.10;;
72127;SDS011;60000;51.030;7.024;2023-12-29T04:50:25;7.90;;;1.37;;
72127;SDS011;60000;51.030;7.024;2023-12-29T04:52:50;4.47;;;0.90;;
72127;SDS011;60000;51.030;7.024;2023-12-29T04:55:15;6.17;;;1.47;;
72127;SDS011;60000;51.030;7.024;2023-12-29T04:57:41;8.77;;;1.10;;
72127;SDS011;60000;51.030;7.024;2023-12-29T05:00:06;7.77;;;1.30;;
72127;SDS011;60000;51.030;7.024;2023-12-29T05:02:32;5.45;;;0.95;;
72127;SDS011;60000;51.030;7.024;2023-12-29T05:04:57;9.13;;;1.40;;
72127;SDS011;60000;51.030;7.024;2023-12-29T05:07:23;6.17;;;1.27;;
72127;SDS011;60000;51.030;7.024;2023-12-29T05:09:49;7.35;;;1.00;;
72127;SDS011;60000;51.030;7.024;2023-12-29T05:12:14;5.37;;;0.80;;
72127;SDS011;60000;51.030;7.024;2023-12-29T05:14:40;10.45;;;1.25;;
72127;SDS011;60000;51.030;7.024;2023-12-29T05:17:05;7.40;;;1.83;;
72127;SDS011;60000;51.030;7.024;2023-12-29T05:19:31;4.95;;;0.90;;
72127;SDS011;60000;51.030;7.024;2023-12-29T05:21:56;5.60;;;1.03;;
72127;SDS011;60000;51.030;7.024;2023-12-29T05:24:22;5.17;;;1.10;;
72127;SDS011;60000;51.030;7.024;2023-12-29T05:26:47;6.93;;;1.20;;
72127;SDS011;60000;51.030;7.024;2023-12-29T05:29:12;5.80;;;1.00;;
72127;SDS011;60000;51.030;7.024;2023-12-29T05:31:38;8.20;;;1.73;;
72127;SDS011;60000;51.030;7.024;2023-12-29T05:34:03;7.60;;;1.20;;
72127;SDS011;60000;51.030;7.024;2023-12-29T05:36:28;5.53;;;0.80;;
72127;SDS011;60000;51.030;7.024;2023-12-29T05:38:55;5.80;;;1.33;;
72127;SDS011;60000;51.030;7.024;2023-12-29T05:41:20;4.90;;;1.00;;
72127;SDS011;60000;51.030;7.024;2023-12-29T05:43:46;5.82;;;1.08;;
72127;SDS011;60000;51.030;7.024;2023-12-29T05:46:11;4.65;;;1.30;;
72127;SDS011;60000;51.030;7.024;2023-12-29T05:48:37;5.63;;;1.27;;
72127;SDS011;60000;51.030;7.024;2023-12-29T05:51:12;7.10;;;1.20;;
72127;SDS011;60000;51.030;7.024;2023-12-29T05:53:41;8.15;;;0.90;;
72127;SDS011;60000;51.030;7.024;2023-12-29T05:56:07;4.30;;;0.80;;
72127;SDS011;60000;51.030;7.024;2023-12-29T05:58:33;4.67;;;1.00;;
72127;SDS011;60000;51.030;7.024;2023-12-29T06:00:58;5.95;;;1.02;;
72127;SDS011;60000;51.030;7.024;2023-12-29T06:03:25;7.00;;;0.93;;
72127;SDS011;60000;51.030;7.024;2023-12-29T06:05:51;6.53;;;1.20;;
72127;SDS011;60000;51.030;7.024;2023-12-29T06:08:16;3.57;;;1.03;;
72127;SDS011;60000;51.030;7.024;2023-12-29T06:10:41;4.30;;;1.07;;
72127;SDS011;60000;51.030;7.024;2023-12-29T06:13:07;3.53;;;0.90;;
72127;SDS011;60000;51.030;7.024;2023-12-29T06:15:32;6.57;;;1.40;;
72127;SDS011;60000;51.030;7.024;2023-12-29T06:17:58;5.38;;;1.02;;
72127;SDS011;60000;51.030;7.024;2023-12-29T06:20:23;6.55;;;1.15;;
72127;SDS011;60000;51.030;7.024;2023-12-29T06:22:49;5.33;;;1.10;;
72127;SDS011;60000;51.030;7.024;2023-12-29T06:25:14;5.47;;;1.00;;
72127;SDS011;60000;51.030;7.024;2023-12-29T06:27:40;6.68;;;1.00;;
72127;SDS011;60000;51.030;7.024;2023-12-29T06:30:06;13.77;;;3.30;;
72127;SDS011;60000;51.030;7.024;2023-12-29T06:32:32;10.32;;;2.92;;
72127;SDS011;60000;51.030;7.024;2023-12-29T06:34:58;7.53;;;1.80;;
72127;SDS011;60000;51.030;7.024;2023-12-29T06:37:23;30.95;;;11.10;;
72127;SDS011;60000;51.030;7.024;2023-12-29T06:39:48;30.10;;;9.57;;
72127;SDS011;60000;51.030;7.024;2023-12-29T06:42:14;19.83;;;6.67;;
72127;SDS011;60000;51.030;7.024;2023-12-29T06:44:39;12.53;;;3.17;;
72127;SDS011;60000;51.030;7.024;2023-12-29T06:47:04;9.40;;;3.07;;
72127;SDS011;60000;51.030;7.024;2023-12-29T06:49:31;12.07;;;4.18;;
72127;SDS011;60000;51.030;7.024;2023-12-29T06:51:57;7.97;;;2.00;;
72127;SDS011;60000;51.030;7.024;2023-12-29T06:54:23;8.75;;;2.33;;
72127;SDS011;60000;51.030;7.024;2023-12-29T06:56:48;7.07;;;1.40;;
72127;SDS011;60000;51.030;7.024;2023-12-29T06:59:13;7.60;;;1.57;;
72127;SDS011;60000;51.030;7.024;2023-12-29T07:01:39;4.57;;;1.10;;
72127;SDS011;60000;51.030;7.024;2023-12-29T07:04:06;4.70;;;1.13;;
72127;SDS011;60000;51.030;7.024;2023-12-29T07:06:31;9.27;;;2.10;;
72127;SDS011;60000;51.030;7.024;2023-12-29T07:08:56;6.80;;;1.00;;
72127;SDS011;60000;51.030;7.024;2023-12-29T07:11:22;12.63;;;2.83;;
72127;SDS011;60000;51.030;7.024;2023-12-29T07:13:47;7.77;;;1.37;;
72127;SDS011;60000;51.030;7.024;2023-12-29T07:16:12;8.00;;;1.50;;
72127;SDS011;60000;51.030;7.024;2023-12-29T07:18:38;3.73;;;1.00;;
72127;SDS011;60000;51.030;7.024;2023-12-29T07:21:03;4.20;;;1.00;;
72127;SDS011;60000;51.030;7.024;2023-12-29T07:23:29;7.15;;;1.15;;
72127;SDS011;60000;51.030;7.024;2023-12-29T07:25:54;3.87;;;1.10;;
72127;SDS011;60000;51.030;7.024;2023-12-29T07:28:19;4.30;;;1.10;;
72127;SDS011;60000;51.030;7.024;2023-12-29T07:30:45;5.33;;;1.57;;
72127;SDS011;60000;51.030;7.024;2023-12-29T07:33:10;6.93;;;1.50;;
72127;SDS011;60000;51.030;7.024;2023-12-29T07:35:35;6.53;;;1.40;;
72127;SDS011;60000;51.030;7.024;2023-12-29T07:38:01;6.88;;;1.50;;
72127;SDS011;60000;51.030;7.024;2023-12-29T07:40:26;7.53;;;1.50;;
72127;SDS011;60000;51.030;7.024;2023-12-29T07:42:52;5.60;;;1.13;;
72127;SDS011;60000;51.030;7.024;2023-12-29T07:45:17;4.67;;;1.63;;
72127;SDS011;60000;51.030;7.024;2023-12-29T07:47:43;5.60;;;1.10;;
72127;SDS011;60000;51.030;7.024;2023-12-29T07:50:08;5.70;;;1.10;;
72127;SDS011;60000;51.030;7.024;2023-12-29T07:52:34;6.33;;;1.03;;
72127;SDS011;60000;51.030;7.024;2023-12-29T07:54:59;5.83;;;1.30;;
72127;SDS011;60000;51.030;7.024;2023-12-29T07:57:24;6.43;;;1.53;;
72127;SDS011;60000;51.030;7.024;2023-12-29T07:59:50;7.10;;;1.90;;
72127;SDS011;60000;51.030;7.024;2023-12-29T08:02:15;9.60;;;2.90;;
72127;SDS011;60000;51.030;7.024;2023-12-29T08:04:41;9.55;;;3.40;;
72127;SDS011;60000;51.030;7.024;2023-12-29T08:07:06;9.65;;;2.30;;
72127;SDS011;60000;51.030;7.024;2023-12-29T08:09:32;7.70;;;2.20;;
72127;SDS011;60000;51.030;7.024;2023-12-29T08:11:57;7.07;;;2.27;;
72127;SDS011;60000;51.030;7.024;2023-12-29T08:14:22;8.00;;;2.77;;
72127;SDS011;60000;51.030;7.024;2023-12-29T08:16:48;5.93;;;1.63;;
72127;SDS011;60000;51.030;7.024;2023-12-29T08:19:13;9.63;;;2.90;;
72127;SDS011;60000;51.030;7.024;2023-12-29T08:21:40;8.18;;;2.63;;
72127;SDS011;60000;51.030;7.024;2023-12-29T08:24:05;8.93;;;3.10;;
72127;SDS011;60000;51.030;7.024;2023-12-29T08:26:31;9.60;;;2.03;;
72127;SDS011;60000;51.030;7.024;2023-12-29T08:28:56;10.57;;;3.33;;
72127;SDS011;60000;51.030;7.024;2023-12-29T08:31:21;7.97;;;3.10;;
72127;SDS011;60000;51.030;7.024;2023-12-29T08:33:48;8.55;;;2.40;;
72127;SDS011;60000;51.030;7.024;2023-12-29T08:36:13;8.20;;;2.20;;
72127;SDS011;60000;51.030;7.024;2023-12-29T08:38:39;7.43;;;2.90;;
72127;SDS011;60000;51.030;7.024;2023-12-29T08:41:04;13.47;;;5.00;;
72127;SDS011;60000;51.030;7.024;2023-12-29T08:43:30;11.57;;;3.65;;
72127;SDS011;60000;51.030;7.024;2023-12-29T08:45:55;8.17;;;3.10;;
72127;SDS011;60000;51.030;7.024;2023-12-29T08:48:21;8.33;;;2.77;;
72127;SDS011;60000;51.030;7.024;2023-12-29T08:50:47;8.05;;;2.85;;
72127;SDS011;60000;51.030;7.024;2023-12-29T08:53:13;6.45;;;2.25;;
72127;SDS011;60000;51.030;7.024;2023-12-29T08:55:39;7.13;;;2.50;;
72127;SDS011;60000;51.030;7.024;2023-12-29T08:58:04;6.07;;;1.93;;
72127;SDS011;60000;51.030;7.024;2023-12-29T09:00:30;6.13;;;1.60;;
72127;SDS011;60000;51.030;7.024;2023-12-29T09:02:55;4.10;;;1.30;;
72127;SDS011;60000;51.030;7.024;2023-12-29T09:05:21;4.57;;;1.30;;
72127;SDS011;60000;51.030;7.024;2023-12-29T09:07:46;7.47;;;1.90;;
72127;SDS011;60000;51.030;7.024;2023-12-29T09:10:12;4.97;;;1.40;;
72127;SDS011;60000;51.030;7.024;2023-12-29T09:12:37;5.35;;;1.70;;
72127;SDS011;60000;51.030;7.024;2023-12-29T09:15:04;5.13;;;1.70;;
72127;SDS011;60000;51.030;7.024;2023-12-29T09:17:30;4.90;;;1.33;;
72127;SDS011;60000;51.030;7.024;2023-12-29T09:19:55;8.17;;;2.20;;
72127;SDS011;60000;51.030;7.024;2023-12-29T09:22:21;9.33;;;2.93;;
72127;SDS011;60000;51.030;7.024;2023-12-29T09:24:46;9.80;;;3.75;;
72127;SDS011;60000;51.030;7.024;2023-12-29T09:27:11;22.67;;;7.47;;
72127;SDS011;60000;51.030;7.024;2023-12-29T09:29:37;20.17;;;7.43;;
72127;SDS011;60000;51.030;7.024;2023-12-29T09:32:02;9.40;;;3.10;;
72127;SDS011;60000;51.030;7.024;2023-12-29T09:34:28;7.30;;;1.70;;
72127;SDS011;60000;51.030;7.024;2023-12-29T09:36:53;8.73;;;2.07;;
72127;SDS011;60000;51.030;7.024;2023-12-29T09:39:19;12.60;;;2.73;;
72127;SDS011;60000;51.030;7.024;2023-12-29T09:41:45;8.00;;;2.20;;
72127;SDS011;60000;51.030;7.024;2023-12-29T09:44:13;6.40;;;1.80;;
72127;SDS011;60000;51.030;7.024;2023-12-29T09:46:41;5.65;;;1.60;;
72127;SDS011;60000;51.030;7.024;2023-12-29T09:49:07;9.20;;;2.17;;
72127;SDS011;60000;51.030;7.024;2023-12-29T09:51:34;9.43;;;1.80;;
72127;SDS011;60000;51.030;7.024;2023-12-29T09:54:01;7.78;;;2.50;;
72127;SDS011;60000;51.030;7.024;2023-12-29T09:56:27;8.55;;;2.63;;
72127;SDS011;60000;51.030;7.024;2023-12-29T09:58:52;5.73;;;1.30;;
72127;SDS011;60000;51.030;7.024;2023-12-29T10:01:19;5.53;;;1.00;;
72127;SDS011;60000;51.030;7.024;2023-12-29T10:03:47;5.03;;;0.80;;
72127;SDS011;60000;51.030;7.024;2023-12-29T10:06:13;5.28;;;0.77;;
72127;SDS011;60000;51.030;7.024;2023-12-29T10:08:46;5.30;;;1.00;;
72127;SDS011;60000;51.030;7.024;2023-12-29T10:11:15;4.20;;;0.90;;
72127;SDS011;60000;51.030;7.024;2023-12-29T10:13:49;6.47;;;1.38;;
72127;SDS011;60000;51.030;7.024;2023-12-29T10:16:29;4.32;;;1.00;;
72127;SDS011;60000;51.030;7.024;2023-12-29T10:19:10;7.93;;;1.00;;
72127;SDS011;60000;51.030;7.024;2023-12-29T10:24:54;3.20;;;0.80;;
72127;SDS011;60000;51.030;7.024;2023-12-29T10:27:20;4.00;;;0.90;;
72127;SDS011;60000;51.030;7.024;2023-12-29T10:29:45;4.45;;;0.98;;
72127;SDS011;60000;51.030;7.024;2023-12-29T10:32:11;3.73;;;0.80;;
72127;SDS011;60000;51.030;7.024;2023-12-29T10:34:36;3.03;;;0.73;;
72127;SDS011;60000;51.030;7.024;2023-12-29T10:37:02;2.60;;;0.82;;
72127;SDS011;60000;51.030;7.024;2023-12-29T10:39:31;3.07;;;0.90;;
72127;SDS011;60000;51.030;7.024;2023-12-29T10:42:02;4.95;;;0.82;;
72127;SDS011;60000;51.030;7.024;2023-12-29T10:44:36;3.78;;;1.00;;
72127;SDS011;60000;51.030;7.024;2023-12-29T10:47:08;3.17;;;0.90;;
72127;SDS011;60000;51.030;7.024;2023-12-29T10:49:35;4.25;;;1.05;;
72127;SDS011;60000;51.030;7.024;2023-12-29T10:52:02;3.30;;;0.80;;
72127;SDS011;60000;51.030;7.024;2023-12-29T10:54:36;4.50;;;0.80;;
72127;SDS011;60000;51.030;7.024;2023-12-29T10:57:01;3.13;;;0.87;;
72127;SDS011;60000;51.030;7.024;2023-12-29T10:59:28;3.15;;;1.10;;
72127;SDS011;60000;51.030;7.024;2023-12-29T11:01:53;3.78;;;1.00;;
72127;SDS011;60000;51.030;7.024;2023-12-29T11:04:21;5.87;;;1.10;;
72127;SDS011;60000;51.030;7.024;2023-12-29T11:10:09;3.80;;;0.80;;
72127;SDS011;60000;51.030;7.024;2023-12-29T11:12:35;3.27;;;1.20;;
72127;SDS011;60000;51.030;7.024;2023-12-29T11:15:02;6.05;;;1.42;;
72127;SDS011;60000;51.030;7.024;2023-12-29T11:17:30;5.25;;;1.35;;
72127;SDS011;60000;51.030;7.024;2023-12-29T11:19:58;4.75;;;1.55;;
72127;SDS011;60000;51.030;7.024;2023-12-29T11:22:24;4.63;;;1.50;;
72127;SDS011;60000;51.030;7.024;2023-12-29T11:24:53;4.85;;;1.00;;
72127;SDS011;60000;51.030;7.024;2023-12-29T11:27:18;5.30;;;1.40;;
72127;SDS011;60000;51.030;7.024;2023-12-29T11:29:44;5.28;;;1.33;;
72127;SDS011;60000;51.030;7.024;2023-12-29T11:32:22;3.90;;;0.93;;
72127;SDS011;60000;51.030;7.024;2023-12-29T11:34:53;6.50;;;1.10;;
72127;SDS011;60000;51.030;7.024;2023-12-29T11:42:49;4.88;;;1.20;;
72127;SDS011;60000;51.030;7.024;2023-12-29T11:45:25;4.53;;;1.30;;
72127;SDS011;60000;51.030;7.024;2023-12-29T11:47:53;4.55;;;1.05;;
72127;SDS011;60000;51.030;7.024;2023-12-29T11:50:28;3.77;;;0.80;;
72127;SDS011;60000;51.030;7.024;2023-12-29T11:52:55;5.28;;;1.50;;
72127;SDS011;60000;51.030;7.024;2023-12-29T11:55:21;4.57;;;1.20;;
72127;SDS011;60000;51.030;7.024;2023-12-29T11:57:46;4.50;;;1.30;;
72127;SDS011;60000;51.030;7.024;2023-12-29T12:00:12;10.43;;;2.10;;
72127;SDS011;60000;51.030;7.024;2023-12-29T12:02:38;5.50;;;1.30;;
72127;SDS011;60000;51.030;7.024;2023-12-29T12:05:04;6.68;;;1.52;;
72127;SDS011;60000;51.030;7.024;2023-12-29T12:12:55;6.70;;;2.43;;
72127;SDS011;60000;51.030;7.024;2023-12-29T12:17:53;4.43;;;0.95;;
72127;SDS011;60000;51.030;7.024;2023-12-29T12:20:19;6.10;;;1.58;;
72127;SDS011;60000;51.030;7.024;2023-12-29T12:22:45;2.83;;;0.90;;
72127;SDS011;60000;51.030;7.024;2023-12-29T12:25:20;3.90;;;1.13;;
72127;SDS011;60000;51.030;7.024;2023-12-29T12:27:46;4.03;;;1.05;;
72127;SDS011;60000;51.030;7.024;2023-12-29T12:30:11;6.43;;;1.98;;
72127;SDS011;60000;51.030;7.024;2023-12-29T12:32:43;5.07;;;1.40;;
72127;SDS011;60000;51.030;7.024;2023-12-29T12:35:14;4.30;;;1.10;;
72127;SDS011;60000;51.030;7.024;2023-12-29T12:37:43;4.73;;;1.20;;
72127;SDS011;60000;51.030;7.024;2023-12-29T12:40:09;5.13;;;1.38;;
72127;SDS011;60000;51.030;7.024;2023-12-29T12:42:41;3.60;;;1.25;;
72127;SDS011;60000;51.030;7.024;2023-12-29T12:45:10;7.78;;;2.63;;
72127;SDS011;60000;51.030;7.024;2023-12-29T12:47:45;6.20;;;2.30;;
72127;SDS011;60000;51.030;7.024;2023-12-29T12:50:16;5.68;;;1.95;;
72127;SDS011;60000;51.030;7.024;2023-12-29T12:52:41;5.00;;;1.20;;
72127;SDS011;60000;51.030;7.024;2023-12-29T12:55:07;2.53;;;0.80;;
72127;SDS011;60000;51.030;7.024;2023-12-29T12:57:34;4.05;;;1.00;;
72127;SDS011;60000;51.030;7.024;2023-12-29T13:00:01;3.10;;;0.85;;
72127;SDS011;60000;51.030;7.024;2023-12-29T13:02:28;3.85;;;0.90;;
72127;SDS011;60000;51.030;7.024;2023-12-29T13:04:54;3.75;;;1.13;;
72127;SDS011;60000;51.030;7.024;2023-12-29T13:07:21;2.50;;;0.90;;
72127;SDS011;60000;51.030;7.024;2023-12-29T13:09:47;1.87;;;0.70;;
72127;SDS011;60000;51.030;7.024;2023-12-29T13:12:16;4.95;;;1.58;;
72127;SDS011;60000;51.030;7.024;2023-12-29T13:14:43;1.95;;;0.70;;
72127;SDS011;60000;51.030;7.024;2023-12-29T13:17:09;3.25;;;0.80;;
72127;SDS011;60000;51.030;7.024;2023-12-29T13:19:36;3.33;;;0.90;;
72127;SDS011;60000;51.030;7.024;2023-12-29T13:22:05;2.00;;;0.77;;
72127;SDS011;60000;51.030;7.024;2023-12-29T13:24:33;1.75;;;0.77;;
72127;SDS011;60000;51.030;7.024;2023-12-29T13:27:03;2.50;;;0.60;;
72127;SDS011;60000;51.030;7.024;2023-12-29T13:29:30;1.80;;;0.75;;
72127;SDS011;60000;51.030;7.024;2023-12-29T13:32:18;2.58;;;1.05;;
72127;SDS011;60000;51.030;7.024;2023-12-29T13:37:43;2.40;;;0.70;;
72127;SDS011;60000;51.030;7.024;2023-12-29T13:40:22;2.42;;;1.00;;
72127;SDS011;60000;51.030;7.024;2023-12-29T13:42:50;3.80;;;1.10;;
72127;SDS011;60000;51.030;7.024;2023-12-29T13:45:22;4.53;;;1.23;;
72127;SDS011;60000;51.030;7.024;2023-12-29T13:47:48;2.75;;;0.82;;
72127;SDS011;60000;51.030;7.024;2023-12-29T13:50:13;5.57;;;1.77;;
72127;SDS011;60000;51.030;7.024;2023-12-29T13:52:39;4.35;;;1.30;;
72127;SDS011;60000;51.030;7.024;2023-12-29T13:55:05;2.78;;;0.80;;
72127;SDS011;60000;51.030;7.024;2023-12-29T13:57:34;3.10;;;1.10;;
72127;SDS011;60000;51.030;7.024;2023-12-29T14:00:17;2.65;;;0.88;;
72127;SDS011;60000;51.030;7.024;2023-12-29T14:02:48;4.00;;;0.90;;
72127;SDS011;60000;51.030;7.024;2023-12-29T14:10:38;2.78;;;0.85;;
72127;SDS011;60000;51.030;7.024;2023-12-29T14:13:12;3.83;;;0.90;;
72127;SDS011;60000;51.030;7.024;2023-12-29T14:15:40;3.78;;;1.00;;
72127;SDS011;60000;51.030;7.024;2023-12-29T14:21:28;4.20;;;1.10;;
72127;SDS011;60000;51.030;7.024;2023-12-29T14:24:17;5.47;;;2.40;;
72127;SDS011;60000;51.030;7.024;2023-12-29T14:26:42;8.75;;;3.40;;
72127;SDS011;60000;51.030;7.024;2023-12-29T14:29:19;4.72;;;1.50;;
72127;SDS011;60000;51.030;7.024;2023-12-29T14:31:45;3.20;;;1.02;;
72127;SDS011;60000;51.030;7.024;2023-12-29T14:34:12;2.30;;;0.80;;
72127;SDS011;60000;51.030;7.024;2023-12-29T14:36:41;3.70;;;1.00;;
72127;SDS011;60000;51.030;7.024;2023-12-29T14:39:08;4.80;;;1.10;;
72127;SDS011;60000;51.030;7.024;2023-12-29T14:41:35;3.92;;;1.20;;
72127;SDS011;60000;51.030;7.024;2023-12-29T14:44:00;3.50;;;1.13;;
72127;SDS011;60000;51.030;7.024;2023-12-29T14:46:26;2.87;;;0.90;;
72127;SDS011;60000;51.030;7.024;2023-12-29T14:48:51;3.85;;;1.00;;
72127;SDS011;60000;51.030;7.024;2023-12-29T14:51:18;4.50;;;1.10;;
72127;SDS011;60000;51.030;7.024;2023-12-29T14:53:47;4.15;;;1.20;;
72127;SDS011;60000;51.030;7.024;2023-12-29T14:56:13;3.97;;;1.00;;
72127;SDS011;60000;51.030;7.024;2023-12-29T14:58:39;3.25;;;1.02;;
72127;SDS011;60000;51.030;7.024;2023-12-29T15:01:05;4.63;;;1.33;;
72127;SDS011;60000;51.030;7.024;2023-12-29T15:03:31;4.13;;;1.02;;
72127;SDS011;60000;51.030;7.024;2023-12-29T15:05:57;7.13;;;1.60;;
72127;SDS011;60000;51.030;7.024;2023-12-29T15:08:23;8.18;;;2.55;;
72127;SDS011;60000;51.030;7.024;2023-12-29T15:10:49;4.27;;;1.50;;
72127;SDS011;60000;51.030;7.024;2023-12-29T15:13:14;5.87;;;1.50;;
72127;SDS011;60000;51.030;7.024;2023-12-29T15:15:39;4.73;;;1.20;;
72127;SDS011;60000;51.030;7.024;2023-12-29T15:18:05;2.90;;;1.00;;
72127;SDS011;60000;51.030;7.024;2023-12-29T15:20:30;2.97;;;0.85;;